Horn Island Airport
YHID : now visible

Airfield :











YOU CAN JOIN US ON...

 
LOGIN :

Register | Disclaimer

   EN    FR    IT 

 









Legend :    VFR   Marginal VFR   IFR   Intensive IFR   Very Intensive IFR
Visi :
Ceiling :
>= 8 km
>= 3000ft
5 to 8 km
1000 to 3000 ft
1500m to 5 km
500 to 1000 ft
800 to 1500m
200 to 500 ft
< 800m
< 200 ft
Symbols :   Thunderstorms  Fog  Heavy snow  Heavy precipitations  Wind > 20 kt






- Airport Elevation : 43 ft
- IATA code : HID


YHID - Horn Island

CURRENT METAR :
  • 240600Z AUTO 31010KT 9999 // SCT095 30/26 Q1007

EXPIRED METARs :
  • 240530Z AUTO 30010KT 9999 // BKN088 30/26 Q1007
  • 240500Z AUTO 30011KT 9999 // SCT020 SCT099 30/26 Q1007
  • 240436Z AUTO 32012KT 9999 // SCT016 SCT025 30/26 Q1007
  • 240430Z AUTO 32012KT 9999 // SCT014 BKN020 BKN025 30/27 Q1007
  • 240404Z AUTO 33011KT 9999 // BKN014 29/26 Q1008
  • 240330Z AUTO 32012KT 9999 // SCT080 SCT098 29/26 Q1008

TAF AMD TAF YHID
Valid from the 24 at 06:00 until the 25 at 06:00 UTC


240545Z 2406/2506 34014KT 9999 SCT020 SCT030
FM241000 30014KT 9999 -SHRA SCT014 INTER 2420/2506 2000 SHRA BKN005
PROB30
TEMPO 2420/2506 VRB20G40KT 0800 TSRA BKN005 SCT020CB



MET'MAP, your aeronautical weather chart ! - Copyright ORBIFLY December 2007 - Disclaimer

ORBIFLY MET'MAP TEAM :

Programming & Development : Alexandra Zaïnal
Concept & original design : Baudouin d'Aumeries
Assistance for programming : Marc-Olivier Méhu
Technical & hardware support : Manuel Goepfert

Contact : metmap@orbifly.com




SOURCES & CREDITS :

   NOAA       Earth
Advisory